sensor_id;sensor_type;location;lat;lon;timestamp;P1;durP1;ratioP1;P2;durP2;ratioP2
72590;SDS011;60625;51.212;5.952;2023-02-28T00:02:58;9.40;;;3.70;;
72590;SDS011;60625;51.212;5.952;2023-02-28T00:07:58;8.00;;;4.20;;
72590;SDS011;60625;51.212;5.952;2023-02-28T00:13:02;8.30;;;3.90;;
72590;SDS011;60625;51.212;5.952;2023-02-28T00:18:04;8.30;;;3.80;;
72590;SDS011;60625;51.212;5.952;2023-02-28T00:23:05;13.50;;;4.10;;
72590;SDS011;60625;51.212;5.952;2023-02-28T00:28:05;11.50;;;4.40;;
72590;SDS011;60625;51.212;5.952;2023-02-28T00:33:06;13.20;;;4.20;;
72590;SDS011;60625;51.212;5.952;2023-02-28T00:38:07;8.00;;;3.80;;
72590;SDS011;60625;51.212;5.952;2023-02-28T00:43:09;11.60;;;4.60;;
72590;SDS011;60625;51.212;5.952;2023-02-28T00:48:09;10.20;;;4.10;;
72590;SDS011;60625;51.212;5.952;2023-02-28T00:53:09;8.60;;;3.80;;
72590;SDS011;60625;51.212;5.952;2023-02-28T00:58:10;10.90;;;4.10;;
72590;SDS011;60625;51.212;5.952;2023-02-28T01:03:11;10.00;;;4.00;;
72590;SDS011;60625;51.212;5.952;2023-02-28T01:08:12;12.90;;;3.90;;
72590;SDS011;60625;51.212;5.952;2023-02-28T01:13:15;11.40;;;4.50;;
72590;SDS011;60625;51.212;5.952;2023-02-28T01:18:15;7.70;;;3.50;;
72590;SDS011;60625;51.212;5.952;2023-02-28T01:23:16;11.10;;;3.70;;
72590;SDS011;60625;51.212;5.952;2023-02-28T01:28:17;9.50;;;3.90;;
72590;SDS011;60625;51.212;5.952;2023-02-28T01:33:17;8.00;;;4.30;;
72590;SDS011;60625;51.212;5.952;2023-02-28T01:38:17;10.30;;;4.20;;
72590;SDS011;60625;51.212;5.952;2023-02-28T01:43:25;10.70;;;4.10;;
72590;SDS011;60625;51.212;5.952;2023-02-28T01:48:31;8.00;;;3.30;;
72590;SDS011;60625;51.212;5.952;2023-02-28T01:53:36;9.30;;;3.30;;
72590;SDS011;60625;51.212;5.952;2023-02-28T01:58:39;10.60;;;4.30;;
72590;SDS011;60625;51.212;5.952;2023-02-28T02:03:40;12.30;;;4.10;;
72590;SDS011;60625;51.212;5.952;2023-02-28T02:08:40;10.20;;;4.30;;
72590;SDS011;60625;51.212;5.952;2023-02-28T02:19:37;9.10;;;3.90;;
72590;SDS011;60625;51.212;5.952;2023-02-28T02:36:03;8.30;;;4.30;;
72590;SDS011;60625;51.212;5.952;2023-02-28T02:41:10;9.30;;;4.00;;
72590;SDS011;60625;51.212;5.952;2023-02-28T02:46:38;8.60;;;4.30;;
72590;SDS011;60625;51.212;5.952;2023-02-28T02:51:42;9.50;;;4.30;;
72590;SDS011;60625;51.212;5.952;2023-02-28T02:56:46;10.20;;;3.90;;
72590;SDS011;60625;51.212;5.952;2023-02-28T03:01:51;9.70;;;4.30;;
72590;SDS011;60625;51.212;5.952;2023-02-28T03:06:54;11.40;;;4.70;;
72590;SDS011;60625;51.212;5.952;2023-02-28T03:11:56;9.80;;;4.20;;
72590;SDS011;60625;51.212;5.952;2023-02-28T03:22:37;10.70;;;4.70;;
72590;SDS011;60625;51.212;5.952;2023-02-28T03:33:37;9.10;;;3.80;;
72590;SDS011;60625;51.212;5.952;2023-02-28T03:38:47;12.70;;;4.60;;
72590;SDS011;60625;51.212;5.952;2023-02-28T03:43:57;10.30;;;5.10;;
72590;SDS011;60625;51.212;5.952;2023-02-28T03:49:17;9.50;;;4.30;;
72590;SDS011;60625;51.212;5.952;2023-02-28T03:54:25;9.20;;;4.00;;
72590;SDS011;60625;51.212;5.952;2023-02-28T03:59:34;14.10;;;4.50;;
72590;SDS011;60625;51.212;5.952;2023-02-28T04:04:37;8.00;;;4.20;;
72590;SDS011;60625;51.212;5.952;2023-02-28T04:09:38;11.50;;;4.60;;
72590;SDS011;60625;51.212;5.952;2023-02-28T04:14:39;9.00;;;4.40;;
72590;SDS011;60625;51.212;5.952;2023-02-28T04:19:39;11.10;;;4.60;;
72590;SDS011;60625;51.212;5.952;2023-02-28T04:24:39;10.00;;;3.90;;
72590;SDS011;60625;51.212;5.952;2023-02-28T04:29:43;11.70;;;4.40;;
72590;SDS011;60625;51.212;5.952;2023-02-28T04:34:44;12.80;;;4.10;;
72590;SDS011;60625;51.212;5.952;2023-02-28T04:39:45;9.20;;;4.20;;
72590;SDS011;60625;51.212;5.952;2023-02-28T04:44:45;9.00;;;4.00;;
72590;SDS011;60625;51.212;5.952;2023-02-28T04:49:47;9.50;;;4.20;;
72590;SDS011;60625;51.212;5.952;2023-02-28T04:54:47;11.00;;;3.90;;
72590;SDS011;60625;51.212;5.952;2023-02-28T04:59:48;9.00;;;4.20;;
72590;SDS011;60625;51.212;5.952;2023-02-28T05:04:48;9.40;;;3.70;;
72590;SDS011;60625;51.212;5.952;2023-02-28T05:09:49;8.90;;;3.70;;
72590;SDS011;60625;51.212;5.952;2023-02-28T05:14:49;11.30;;;4.20;;
72590;SDS011;60625;51.212;5.952;2023-02-28T05:19:50;11.10;;;4.60;;
72590;SDS011;60625;51.212;5.952;2023-02-28T05:24:50;10.40;;;4.60;;
72590;SDS011;60625;51.212;5.952;2023-02-28T05:29:51;7.60;;;4.30;;
72590;SDS011;60625;51.212;5.952;2023-02-28T05:34:51;12.30;;;4.30;;
72590;SDS011;60625;51.212;5.952;2023-02-28T05:39:52;7.80;;;3.60;;
72590;SDS011;60625;51.212;5.952;2023-02-28T05:44:52;7.80;;;3.50;;
72590;SDS011;60625;51.212;5.952;2023-02-28T05:49:53;10.90;;;3.90;;
72590;SDS011;60625;51.212;5.952;2023-02-28T05:54:53;10.80;;;4.30;;
72590;SDS011;60625;51.212;5.952;2023-02-28T05:59:54;10.40;;;4.80;;
72590;SDS011;60625;51.212;5.952;2023-02-28T06:04:54;8.70;;;4.10;;
72590;SDS011;60625;51.212;5.952;2023-02-28T06:09:55;11.00;;;4.40;;
72590;SDS011;60625;51.212;5.952;2023-02-28T06:14:55;10.00;;;4.40;;
72590;SDS011;60625;51.212;5.952;2023-02-28T06:19:56;10.10;;;3.80;;
72590;SDS011;60625;51.212;5.952;2023-02-28T06:24:56;17.10;;;4.00;;
72590;SDS011;60625;51.212;5.952;2023-02-28T06:29:57;10.40;;;4.20;;
72590;SDS011;60625;51.212;5.952;2023-02-28T06:34:58;9.30;;;4.30;;
72590;SDS011;60625;51.212;5.952;2023-02-28T06:39:59;9.30;;;3.80;;
72590;SDS011;60625;51.212;5.952;2023-02-28T06:44:59;9.00;;;4.30;;
72590;SDS011;60625;51.212;5.952;2023-02-28T06:50:00;9.00;;;4.00;;
72590;SDS011;60625;51.212;5.952;2023-02-28T06:55:02;11.00;;;3.90;;
72590;SDS011;60625;51.212;5.952;2023-02-28T07:00:08;8.10;;;3.50;;
72590;SDS011;60625;51.212;5.952;2023-02-28T07:05:09;14.20;;;3.80;;
72590;SDS011;60625;51.212;5.952;2023-02-28T07:10:11;10.50;;;3.80;;
72590;SDS011;60625;51.212;5.952;2023-02-28T07:15:12;11.10;;;4.00;;
72590;SDS011;60625;51.212;5.952;2023-02-28T07:20:13;9.40;;;3.80;;
72590;SDS011;60625;51.212;5.952;2023-02-28T07:25:14;8.50;;;3.90;;
72590;SDS011;60625;51.212;5.952;2023-02-28T07:30:14;10.00;;;4.20;;
72590;SDS011;60625;51.212;5.952;2023-02-28T07:35:15;8.40;;;4.30;;
72590;SDS011;60625;51.212;5.952;2023-02-28T07:40:16;12.30;;;4.00;;
72590;SDS011;60625;51.212;5.952;2023-02-28T07:45:18;11.40;;;4.00;;
72590;SDS011;60625;51.212;5.952;2023-02-28T07:50:19;9.60;;;3.80;;
72590;SDS011;60625;51.212;5.952;2023-02-28T07:55:20;12.50;;;4.20;;
72590;SDS011;60625;51.212;5.952;2023-02-28T08:00:21;8.30;;;4.10;;
72590;SDS011;60625;51.212;5.952;2023-02-28T08:05:22;8.80;;;3.50;;
72590;SDS011;60625;51.212;5.952;2023-02-28T08:10:23;9.70;;;4.10;;
72590;SDS011;60625;51.212;5.952;2023-02-28T08:15:24;7.90;;;3.60;;
72590;SDS011;60625;51.212;5.952;2023-02-28T08:20:26;10.10;;;3.10;;
72590;SDS011;60625;51.212;5.952;2023-02-28T08:25:26;7.50;;;3.90;;
72590;SDS011;60625;51.212;5.952;2023-02-28T08:30:27;10.00;;;3.90;;
72590;SDS011;60625;51.212;5.952;2023-02-28T08:35:27;8.50;;;3.50;;
72590;SDS011;60625;51.212;5.952;2023-02-28T08:40:28;8.00;;;3.00;;
72590;SDS011;60625;51.212;5.952;2023-02-28T08:45:28;7.50;;;2.90;;
72590;SDS011;60625;51.212;5.952;2023-02-28T08:50:29;6.70;;;3.10;;
72590;SDS011;60625;51.212;5.952;2023-02-28T08:55:29;6.60;;;2.60;;
72590;SDS011;60625;51.212;5.952;2023-02-28T09:00:30;7.70;;;2.70;;
72590;SDS011;60625;51.212;5.952;2023-02-28T09:05:30;5.60;;;2.10;;
72590;SDS011;60625;51.212;5.952;2023-02-28T09:10:31;5.80;;;2.40;;
72590;SDS011;60625;51.212;5.952;2023-02-28T09:15:31;6.40;;;2.20;;
72590;SDS011;60625;51.212;5.952;2023-02-28T09:20:32;6.20;;;2.30;;
72590;SDS011;60625;51.212;5.952;2023-02-28T09:25:32;5.30;;;2.10;;
72590;SDS011;60625;51.212;5.952;2023-02-28T09:30:34;5.20;;;2.00;;
72590;SDS011;60625;51.212;5.952;2023-02-28T09:35:34;7.80;;;2.50;;
72590;SDS011;60625;51.212;5.952;2023-02-28T09:40:50;5.00;;;1.50;;
72590;SDS011;60625;51.212;5.952;2023-02-28T09:51:55;5.10;;;1.60;;
72590;SDS011;60625;51.212;5.952;2023-02-28T09:57:19;5.10;;;1.20;;
72590;SDS011;60625;51.212;5.952;2023-02-28T10:08:16;3.30;;;1.00;;
72590;SDS011;60625;51.212;5.952;2023-02-28T10:13:32;5.90;;;0.90;;
72590;SDS011;60625;51.212;5.952;2023-02-28T10:19:05;4.50;;;1.20;;
72590;SDS011;60625;51.212;5.952;2023-02-28T10:24:21;4.80;;;1.30;;
72590;SDS011;60625;51.212;5.952;2023-02-28T10:29:31;5.00;;;1.50;;
72590;SDS011;60625;51.212;5.952;2023-02-28T10:34:33;4.20;;;1.20;;
72590;SDS011;60625;51.212;5.952;2023-02-28T10:39:45;4.60;;;1.00;;
72590;SDS011;60625;51.212;5.952;2023-02-28T10:44:46;5.10;;;1.80;;
72590;SDS011;60625;51.212;5.952;2023-02-28T10:49:49;4.70;;;1.70;;
72590;SDS011;60625;51.212;5.952;2023-02-28T10:55:13;4.80;;;1.60;;
72590;SDS011;60625;51.212;5.952;2023-02-28T11:00:20;6.80;;;1.80;;
72590;SDS011;60625;51.212;5.952;2023-02-28T11:05:29;4.10;;;1.50;;
72590;SDS011;60625;51.212;5.952;2023-02-28T11:10:32;5.30;;;1.90;;
72590;SDS011;60625;51.212;5.952;2023-02-28T11:15:35;5.50;;;1.80;;
72590;SDS011;60625;51.212;5.952;2023-02-28T11:20:36;6.00;;;1.60;;
72590;SDS011;60625;51.212;5.952;2023-02-28T11:25:38;6.10;;;1.60;;
72590;SDS011;60625;51.212;5.952;2023-02-28T11:30:40;5.50;;;2.00;;
72590;SDS011;60625;51.212;5.952;2023-02-28T11:35:41;5.40;;;1.70;;
72590;SDS011;60625;51.212;5.952;2023-02-28T11:51:14;4.20;;;2.00;;
72590;SDS011;60625;51.212;5.952;2023-02-28T11:56:41;4.00;;;1.80;;
72590;SDS011;60625;51.212;5.952;2023-02-28T12:18:59;3.70;;;1.50;;
72590;SDS011;60625;51.212;5.952;2023-02-28T12:24:18;4.80;;;1.50;;
72590;SDS011;60625;51.212;5.952;2023-02-28T12:29:29;6.60;;;1.60;;
72590;SDS011;60625;51.212;5.952;2023-02-28T12:34:37;3.80;;;1.70;;
72590;SDS011;60625;51.212;5.952;2023-02-28T12:39:44;6.90;;;1.80;;
72590;SDS011;60625;51.212;5.952;2023-02-28T12:44:54;5.80;;;2.10;;
72590;SDS011;60625;51.212;5.952;2023-02-28T12:50:04;4.50;;;1.70;;
72590;SDS011;60625;51.212;5.952;2023-02-28T12:55:23;3.70;;;1.70;;
72590;SDS011;60625;51.212;5.952;2023-02-28T13:11:54;5.40;;;1.60;;
72590;SDS011;60625;51.212;5.952;2023-02-28T13:22:17;5.80;;;1.80;;
72590;SDS011;60625;51.212;5.952;2023-02-28T13:27:40;6.20;;;2.00;;
72590;SDS011;60625;51.212;5.952;2023-02-28T13:32:42;4.10;;;1.60;;
72590;SDS011;60625;51.212;5.952;2023-02-28T13:37:43;4.30;;;1.60;;
72590;SDS011;60625;51.212;5.952;2023-02-28T13:47:52;4.60;;;1.50;;
72590;SDS011;60625;51.212;5.952;2023-02-28T14:09:49;4.90;;;1.90;;
72590;SDS011;60625;51.212;5.952;2023-02-28T14:15:39;4.40;;;1.70;;
72590;SDS011;60625;51.212;5.952;2023-02-28T14:20:43;6.20;;;1.70;;
72590;SDS011;60625;51.212;5.952;2023-02-28T14:31:09;6.70;;;2.00;;
72590;SDS011;60625;51.212;5.952;2023-02-28T14:41:38;7.30;;;2.00;;
72590;SDS011;60625;51.212;5.952;2023-02-28T14:46:41;5.40;;;1.90;;
72590;SDS011;60625;51.212;5.952;2023-02-28T14:51:43;6.40;;;1.90;;
72590;SDS011;60625;51.212;5.952;2023-02-28T14:56:48;4.40;;;2.00;;
72590;SDS011;60625;51.212;5.952;2023-02-28T15:01:49;5.00;;;2.20;;
72590;SDS011;60625;51.212;5.952;2023-02-28T15:07:10;5.50;;;1.90;;
72590;SDS011;60625;51.212;5.952;2023-02-28T15:12:15;5.80;;;2.20;;
72590;SDS011;60625;51.212;5.952;2023-02-28T15:17:23;6.10;;;2.60;;
72590;SDS011;60625;51.212;5.952;2023-02-28T15:22:35;6.00;;;2.00;;
72590;SDS011;60625;51.212;5.952;2023-02-28T15:27:42;5.70;;;1.80;;
72590;SDS011;60625;51.212;5.952;2023-02-28T15:33:06;7.10;;;1.80;;
72590;SDS011;60625;51.212;5.952;2023-02-28T15:38:26;6.00;;;2.60;;
72590;SDS011;60625;51.212;5.952;2023-02-28T15:43:38;6.10;;;2.40;;
72590;SDS011;60625;51.212;5.952;2023-02-28T15:53:54;5.90;;;2.30;;
72590;SDS011;60625;51.212;5.952;2023-02-28T15:59:02;5.50;;;2.40;;
72590;SDS011;60625;51.212;5.952;2023-02-28T16:04:06;5.70;;;2.60;;
72590;SDS011;60625;51.212;5.952;2023-02-28T16:09:15;6.40;;;2.80;;
72590;SDS011;60625;51.212;5.952;2023-02-28T16:14:21;5.70;;;3.10;;
72590;SDS011;60625;51.212;5.952;2023-02-28T16:19:23;4.80;;;2.30;;
72590;SDS011;60625;51.212;5.952;2023-02-28T16:24:24;5.80;;;2.70;;
72590;SDS011;60625;51.212;5.952;2023-02-28T16:29:27;8.40;;;3.00;;
72590;SDS011;60625;51.212;5.952;2023-02-28T16:34:29;6.40;;;3.00;;
72590;SDS011;60625;51.212;5.952;2023-02-28T16:39:29;6.30;;;2.90;;
72590;SDS011;60625;51.212;5.952;2023-02-28T16:44:35;5.30;;;2.50;;
72590;SDS011;60625;51.212;5.952;2023-02-28T16:49:36;6.40;;;2.60;;
72590;SDS011;60625;51.212;5.952;2023-02-28T16:54:40;6.10;;;2.70;;
72590;SDS011;60625;51.212;5.952;2023-02-28T16:59:41;6.80;;;2.60;;
72590;SDS011;60625;51.212;5.952;2023-02-28T17:04:41;7.20;;;3.10;;
72590;SDS011;60625;51.212;5.952;2023-02-28T17:09:43;7.60;;;2.80;;
72590;SDS011;60625;51.212;5.952;2023-02-28T17:14:43;6.70;;;2.90;;
72590;SDS011;60625;51.212;5.952;2023-02-28T17:19:44;5.10;;;2.80;;
72590;SDS011;60625;51.212;5.952;2023-02-28T17:24:44;8.30;;;3.10;;
72590;SDS011;60625;51.212;5.952;2023-02-28T17:29:45;7.20;;;3.30;;
72590;SDS011;60625;51.212;5.952;2023-02-28T17:34:47;6.90;;;2.50;;
72590;SDS011;60625;51.212;5.952;2023-02-28T17:39:47;8.30;;;3.10;;
72590;SDS011;60625;51.212;5.952;2023-02-28T17:44:48;7.70;;;2.80;;
72590;SDS011;60625;51.212;5.952;2023-02-28T17:49:48;7.70;;;3.20;;
72590;SDS011;60625;51.212;5.952;2023-02-28T17:54:49;5.80;;;2.50;;
72590;SDS011;60625;51.212;5.952;2023-02-28T17:59:49;6.00;;;2.60;;
72590;SDS011;60625;51.212;5.952;2023-02-28T18:04:49;6.70;;;3.00;;
72590;SDS011;60625;51.212;5.952;2023-02-28T18:09:50;7.20;;;3.20;;
72590;SDS011;60625;51.212;5.952;2023-02-28T18:14:50;7.40;;;3.10;;
72590;SDS011;60625;51.212;5.952;2023-02-28T18:19:51;7.50;;;2.80;;
72590;SDS011;60625;51.212;5.952;2023-02-28T18:24:51;6.80;;;3.00;;
72590;SDS011;60625;51.212;5.952;2023-02-28T18:29:52;7.30;;;2.90;;
72590;SDS011;60625;51.212;5.952;2023-02-28T18:34:52;5.50;;;2.80;;
72590;SDS011;60625;51.212;5.952;2023-02-28T18:39:53;7.30;;;2.90;;
72590;SDS011;60625;51.212;5.952;2023-02-28T18:44:53;8.80;;;3.20;;
72590;SDS011;60625;51.212;5.952;2023-02-28T18:49:54;7.30;;;3.40;;
72590;SDS011;60625;51.212;5.952;2023-02-28T18:54:54;7.00;;;3.20;;
72590;SDS011;60625;51.212;5.952;2023-02-28T18:59:55;7.70;;;3.00;;
72590;SDS011;60625;51.212;5.952;2023-02-28T19:04:55;8.70;;;3.30;;
72590;SDS011;60625;51.212;5.952;2023-02-28T19:09:55;8.50;;;3.00;;
72590;SDS011;60625;51.212;5.952;2023-02-28T19:14:56;6.50;;;3.10;;
72590;SDS011;60625;51.212;5.952;2023-02-28T19:19:56;9.70;;;3.70;;
72590;SDS011;60625;51.212;5.952;2023-02-28T19:24:58;11.70;;;4.30;;
72590;SDS011;60625;51.212;5.952;2023-02-28T19:29:58;7.10;;;3.30;;
72590;SDS011;60625;51.212;5.952;2023-02-28T19:34:59;7.70;;;3.20;;
72590;SDS011;60625;51.212;5.952;2023-02-28T19:39:59;8.50;;;3.30;;
72590;SDS011;60625;51.212;5.952;2023-02-28T19:45:00;11.00;;;4.20;;
72590;SDS011;60625;51.212;5.952;2023-02-28T19:50:01;8.30;;;4.10;;
72590;SDS011;60625;51.212;5.952;2023-02-28T19:55:03;11.90;;;4.60;;
72590;SDS011;60625;51.212;5.952;2023-02-28T20:00:09;9.20;;;3.90;;
72590;SDS011;60625;51.212;5.952;2023-02-28T20:05:15;8.90;;;3.70;;
72590;SDS011;60625;51.212;5.952;2023-02-28T20:10:15;7.20;;;3.50;;
72590;SDS011;60625;51.212;5.952;2023-02-28T20:15:16;8.60;;;3.40;;
72590;SDS011;60625;51.212;5.952;2023-02-28T20:20:17;10.00;;;4.40;;
72590;SDS011;60625;51.212;5.952;2023-02-28T20:25:19;8.30;;;3.70;;
72590;SDS011;60625;51.212;5.952;2023-02-28T20:30:20;10.50;;;4.20;;
72590;SDS011;60625;51.212;5.952;2023-02-28T20:35:21;8.60;;;4.00;;
72590;SDS011;60625;51.212;5.952;2023-02-28T20:40:22;9.50;;;4.10;;
72590;SDS011;60625;51.212;5.952;2023-02-28T20:45:22;8.40;;;3.90;;
72590;SDS011;60625;51.212;5.952;2023-02-28T20:50:23;8.50;;;4.10;;
72590;SDS011;60625;51.212;5.952;2023-02-28T20:55:24;8.20;;;3.80;;
72590;SDS011;60625;51.212;5.952;2023-02-28T21:00:24;6.80;;;3.60;;
72590;SDS011;60625;51.212;5.952;2023-02-28T21:05:25;11.40;;;4.30;;
72590;SDS011;60625;51.212;5.952;2023-02-28T21:10:26;9.10;;;3.80;;
72590;SDS011;60625;51.212;5.952;2023-02-28T21:15:26;7.90;;;4.00;;
72590;SDS011;60625;51.212;5.952;2023-02-28T21:20:26;8.90;;;4.20;;
72590;SDS011;60625;51.212;5.952;2023-02-28T21:25:27;11.00;;;4.80;;
72590;SDS011;60625;51.212;5.952;2023-02-28T21:30:28;9.20;;;4.50;;
72590;SDS011;60625;51.212;5.952;2023-02-28T21:35:29;9.10;;;4.00;;
72590;SDS011;60625;51.212;5.952;2023-02-28T21:40:29;11.50;;;4.60;;
72590;SDS011;60625;51.212;5.952;2023-02-28T21:45:30;9.90;;;5.10;;
72590;SDS011;60625;51.212;5.952;2023-02-28T21:50:33;12.00;;;4.70;;
72590;SDS011;60625;51.212;5.952;2023-02-28T21:55:34;11.70;;;5.20;;
72590;SDS011;60625;51.212;5.952;2023-02-28T22:00:34;8.40;;;4.50;;
72590;SDS011;60625;51.212;5.952;2023-02-28T22:05:34;8.00;;;4.30;;
72590;SDS011;60625;51.212;5.952;2023-02-28T22:10:35;10.50;;;4.80;;
72590;SDS011;60625;51.212;5.952;2023-02-28T22:15:36;9.40;;;5.00;;
72590;SDS011;60625;51.212;5.952;2023-02-28T22:20:37;8.60;;;4.30;;
72590;SDS011;60625;51.212;5.952;2023-02-28T22:25:37;10.50;;;4.10;;
72590;SDS011;60625;51.212;5.952;2023-02-28T22:30:38;8.30;;;4.30;;
72590;SDS011;60625;51.212;5.952;2023-02-28T22:35:38;11.50;;;4.80;;
72590;SDS011;60625;51.212;5.952;2023-02-28T22:40:38;9.10;;;4.70;;
72590;SDS011;60625;51.212;5.952;2023-02-28T22:45:40;10.30;;;5.30;;
72590;SDS011;60625;51.212;5.952;2023-02-28T22:50:40;10.40;;;5.40;;
72590;SDS011;60625;51.212;5.952;2023-02-28T22:55:42;11.10;;;4.70;;
72590;SDS011;60625;51.212;5.952;2023-02-28T23:00:42;9.70;;;4.90;;
72590;SDS011;60625;51.212;5.952;2023-02-28T23:05:42;12.90;;;5.30;;
72590;SDS011;60625;51.212;5.952;2023-02-28T23:10:43;9.30;;;4.70;;
72590;SDS011;60625;51.212;5.952;2023-02-28T23:15:45;9.60;;;4.80;;
72590;SDS011;60625;51.212;5.952;2023-02-28T23:20:45;11.60;;;4.80;;
72590;SDS011;60625;51.212;5.952;2023-02-28T23:25:46;9.80;;;4.60;;
72590;SDS011;60625;51.212;5.952;2023-02-28T23:30:47;9.90;;;5.00;;
72590;SDS011;60625;51.212;5.952;2023-02-28T23:35:47;10.90;;;5.20;;
72590;SDS011;60625;51.212;5.952;2023-02-28T23:40:47;12.70;;;5.80;;
72590;SDS011;60625;51.212;5.952;2023-02-28T23:45:55;8.70;;;5.00;;
72590;SDS011;60625;51.212;5.952;2023-02-28T23:51:10;8.60;;;4.70;;
72590;SDS011;60625;51.212;5.952;2023-02-28T23:56:16;9.70;;;5.50;;
